sensor_id;sensor_type;location;lat;lon;timestamp;P1;durP1;ratioP1;P2;durP2;ratioP2
76837;SDS011;65797;47.352;8.164;2023-02-28T00:00:25;5.20;;;2.70;;
76837;SDS011;65797;47.352;8.164;2023-02-28T00:02:51;6.10;;;3.10;;
76837;SDS011;65797;47.352;8.164;2023-02-28T00:05:21;4.20;;;3.37;;
76837;SDS011;65797;47.352;8.164;2023-02-28T00:07:48;4.43;;;3.20;;
76837;SDS011;65797;47.352;8.164;2023-02-28T00:10:16;3.93;;;3.13;;
76837;SDS011;65797;47.352;8.164;2023-02-28T00:12:48;4.60;;;3.00;;
76837;SDS011;65797;47.352;8.164;2023-02-28T00:15:18;3.57;;;3.27;;
76837;SDS011;65797;47.352;8.164;2023-02-28T00:17:45;6.57;;;3.90;;
76837;SDS011;65797;47.352;8.164;2023-02-28T00:20:11;5.50;;;3.03;;
76837;SDS011;65797;47.352;8.164;2023-02-28T00:22:38;3.87;;;3.20;;
76837;SDS011;65797;47.352;8.164;2023-02-28T00:25:05;4.90;;;3.30;;
76837;SDS011;65797;47.352;8.164;2023-02-28T00:27:32;4.00;;;3.60;;
76837;SDS011;65797;47.352;8.164;2023-02-28T00:29:58;4.90;;;3.27;;
76837;SDS011;65797;47.352;8.164;2023-02-28T00:32:24;7.50;;;3.43;;
76837;SDS011;65797;47.352;8.164;2023-02-28T00:34:50;4.83;;;3.23;;
76837;SDS011;65797;47.352;8.164;2023-02-28T00:37:15;3.53;;;3.07;;
76837;SDS011;65797;47.352;8.164;2023-02-28T00:39:41;3.67;;;3.30;;
76837;SDS011;65797;47.352;8.164;2023-02-28T00:42:07;4.40;;;3.33;;
76837;SDS011;65797;47.352;8.164;2023-02-28T00:44:33;4.33;;;3.30;;
76837;SDS011;65797;47.352;8.164;2023-02-28T00:46:59;3.83;;;3.47;;
76837;SDS011;65797;47.352;8.164;2023-02-28T00:49:26;4.00;;;3.27;;
76837;SDS011;65797;47.352;8.164;2023-02-28T00:51:53;6.03;;;3.37;;
76837;SDS011;65797;47.352;8.164;2023-02-28T00:54:20;6.67;;;3.17;;
76837;SDS011;65797;47.352;8.164;2023-02-28T00:56:46;3.37;;;3.07;;
76837;SDS011;65797;47.352;8.164;2023-02-28T00:59:13;7.80;;;3.40;;
76837;SDS011;65797;47.352;8.164;2023-02-28T01:01:39;4.30;;;3.27;;
76837;SDS011;65797;47.352;8.164;2023-02-28T01:04:05;5.13;;;3.17;;
76837;SDS011;65797;47.352;8.164;2023-02-28T01:06:31;6.17;;;3.50;;
76837;SDS011;65797;47.352;8.164;2023-02-28T01:08:57;6.00;;;3.27;;
76837;SDS011;65797;47.352;8.164;2023-02-28T01:11:23;5.13;;;3.00;;
76837;SDS011;65797;47.352;8.164;2023-02-28T01:13:50;4.43;;;3.93;;
76837;SDS011;65797;47.352;8.164;2023-02-28T01:16:16;4.13;;;3.33;;
76837;SDS011;65797;47.352;8.164;2023-02-28T01:18:42;3.77;;;3.37;;
76837;SDS011;65797;47.352;8.164;2023-02-28T01:21:10;3.30;;;3.00;;
76837;SDS011;65797;47.352;8.164;2023-02-28T01:23:38;3.80;;;3.50;;
76837;SDS011;65797;47.352;8.164;2023-02-28T01:26:14;3.73;;;3.13;;
76837;SDS011;65797;47.352;8.164;2023-02-28T01:28:45;3.30;;;3.10;;
76837;SDS011;65797;47.352;8.164;2023-02-28T01:31:11;5.20;;;3.27;;
76837;SDS011;65797;47.352;8.164;2023-02-28T01:33:37;7.33;;;3.70;;
76837;SDS011;65797;47.352;8.164;2023-02-28T01:38:31;6.00;;;3.47;;
76837;SDS011;65797;47.352;8.164;2023-02-28T01:40:57;3.70;;;3.23;;
76837;SDS011;65797;47.352;8.164;2023-02-28T01:43:30;5.50;;;3.33;;
76837;SDS011;65797;47.352;8.164;2023-02-28T01:45:58;5.60;;;3.70;;
76837;SDS011;65797;47.352;8.164;2023-02-28T01:48:25;5.50;;;3.70;;
76837;SDS011;65797;47.352;8.164;2023-02-28T01:50:54;4.30;;;3.50;;
76837;SDS011;65797;47.352;8.164;2023-02-28T01:53:26;3.93;;;3.60;;
76837;SDS011;65797;47.352;8.164;2023-02-28T01:56:00;5.20;;;3.50;;
76837;SDS011;65797;47.352;8.164;2023-02-28T01:58:28;5.80;;;3.93;;
76837;SDS011;65797;47.352;8.164;2023-02-28T02:00:54;5.10;;;4.00;;
76837;SDS011;65797;47.352;8.164;2023-02-28T02:03:20;5.23;;;3.93;;
76837;SDS011;65797;47.352;8.164;2023-02-28T02:05:47;6.83;;;4.80;;
76837;SDS011;65797;47.352;8.164;2023-02-28T02:08:15;5.93;;;3.87;;
76837;SDS011;65797;47.352;8.164;2023-02-28T02:10:57;4.17;;;3.50;;
76837;SDS011;65797;47.352;8.164;2023-02-28T02:18:53;4.93;;;3.53;;
76837;SDS011;65797;47.352;8.164;2023-02-28T02:39:19;4.93;;;3.87;;
76837;SDS011;65797;47.352;8.164;2023-02-28T02:41:55;11.03;;;3.90;;
76837;SDS011;65797;47.352;8.164;2023-02-28T02:44:59;5.20;;;3.90;;
76837;SDS011;65797;47.352;8.164;2023-02-28T02:47:30;5.47;;;3.97;;
76837;SDS011;65797;47.352;8.164;2023-02-28T02:49:59;4.57;;;4.07;;
76837;SDS011;65797;47.352;8.164;2023-02-28T02:52:32;4.20;;;3.80;;
76837;SDS011;65797;47.352;8.164;2023-02-28T02:55:03;6.23;;;4.20;;
76837;SDS011;65797;47.352;8.164;2023-02-28T02:57:35;4.50;;;4.10;;
76837;SDS011;65797;47.352;8.164;2023-02-28T03:00:17;9.70;;;3.77;;
76837;SDS011;65797;47.352;8.164;2023-02-28T03:02:48;6.83;;;4.10;;
76837;SDS011;65797;47.352;8.164;2023-02-28T03:05:17;7.13;;;4.70;;
76837;SDS011;65797;47.352;8.164;2023-02-28T03:07:48;7.03;;;4.10;;
76837;SDS011;65797;47.352;8.164;2023-02-28T03:10:30;5.90;;;4.20;;
76837;SDS011;65797;47.352;8.164;2023-02-28T03:19:16;5.33;;;4.13;;
76837;SDS011;65797;47.352;8.164;2023-02-28T03:24:34;7.20;;;4.43;;
76837;SDS011;65797;47.352;8.164;2023-02-28T03:27:07;6.60;;;4.90;;
76837;SDS011;65797;47.352;8.164;2023-02-28T03:29:44;5.50;;;4.17;;
76837;SDS011;65797;47.352;8.164;2023-02-28T03:32:36;5.03;;;4.00;;
76837;SDS011;65797;47.352;8.164;2023-02-28T03:35:21;6.23;;;4.50;;
76837;SDS011;65797;47.352;8.164;2023-02-28T03:37:50;7.53;;;4.43;;
76837;SDS011;65797;47.352;8.164;2023-02-28T03:40:21;4.87;;;4.27;;
76837;SDS011;65797;47.352;8.164;2023-02-28T03:42:53;9.10;;;4.30;;
76837;SDS011;65797;47.352;8.164;2023-02-28T03:45:25;5.30;;;4.80;;
76837;SDS011;65797;47.352;8.164;2023-02-28T03:48:02;4.63;;;4.00;;
76837;SDS011;65797;47.352;8.164;2023-02-28T03:53:09;8.50;;;4.80;;
76837;SDS011;65797;47.352;8.164;2023-02-28T03:55:54;5.87;;;4.13;;
76837;SDS011;65797;47.352;8.164;2023-02-28T03:58:40;4.93;;;3.50;;
76837;SDS011;65797;47.352;8.164;2023-02-28T04:01:13;4.63;;;3.50;;
76837;SDS011;65797;47.352;8.164;2023-02-28T04:04:00;5.10;;;3.60;;
76837;SDS011;65797;47.352;8.164;2023-02-28T04:06:27;7.93;;;4.23;;
76837;SDS011;65797;47.352;8.164;2023-02-28T04:08:55;4.50;;;3.87;;
76837;SDS011;65797;47.352;8.164;2023-02-28T04:13:54;6.50;;;3.90;;
76837;SDS011;65797;47.352;8.164;2023-02-28T04:16:20;10.00;;;4.70;;
76837;SDS011;65797;47.352;8.164;2023-02-28T04:18:46;4.80;;;4.07;;
76837;SDS011;65797;47.352;8.164;2023-02-28T04:21:12;8.97;;;4.70;;
76837;SDS011;65797;47.352;8.164;2023-02-28T04:23:38;5.63;;;3.60;;
76837;SDS011;65797;47.352;8.164;2023-02-28T04:26:04;7.83;;;4.40;;
76837;SDS011;65797;47.352;8.164;2023-02-28T04:28:31;7.40;;;4.43;;
76837;SDS011;65797;47.352;8.164;2023-02-28T04:30:57;4.77;;;3.87;;
76837;SDS011;65797;47.352;8.164;2023-02-28T04:33:27;8.17;;;4.10;;
76837;SDS011;65797;47.352;8.164;2023-02-28T04:35:59;4.00;;;3.70;;
76837;SDS011;65797;47.352;8.164;2023-02-28T04:38:36;5.13;;;3.90;;
76837;SDS011;65797;47.352;8.164;2023-02-28T04:41:04;4.27;;;3.83;;
76837;SDS011;65797;47.352;8.164;2023-02-28T04:43:30;6.00;;;4.37;;
76837;SDS011;65797;47.352;8.164;2023-02-28T04:45:57;6.57;;;4.20;;
76837;SDS011;65797;47.352;8.164;2023-02-28T04:48:29;5.67;;;4.47;;
76837;SDS011;65797;47.352;8.164;2023-02-28T04:51:03;7.80;;;3.77;;
76837;SDS011;65797;47.352;8.164;2023-02-28T04:53:31;4.13;;;3.73;;
76837;SDS011;65797;47.352;8.164;2023-02-28T04:55:57;5.13;;;4.07;;
76837;SDS011;65797;47.352;8.164;2023-02-28T04:58:23;5.57;;;3.93;;
76837;SDS011;65797;47.352;8.164;2023-02-28T05:00:52;8.00;;;4.30;;
76837;SDS011;65797;47.352;8.164;2023-02-28T05:03:19;4.23;;;3.83;;
76837;SDS011;65797;47.352;8.164;2023-02-28T05:05:47;3.90;;;3.53;;
76837;SDS011;65797;47.352;8.164;2023-02-28T05:08:13;3.80;;;3.40;;
76837;SDS011;65797;47.352;8.164;2023-02-28T05:10:38;4.30;;;3.73;;
76837;SDS011;65797;47.352;8.164;2023-02-28T05:13:04;4.67;;;3.60;;
76837;SDS011;65797;47.352;8.164;2023-02-28T05:15:30;5.10;;;3.90;;
76837;SDS011;65797;47.352;8.164;2023-02-28T05:17:56;8.93;;;3.53;;
76837;SDS011;65797;47.352;8.164;2023-02-28T05:20:21;10.80;;;3.90;;
76837;SDS011;65797;47.352;8.164;2023-02-28T05:22:47;10.80;;;4.23;;
76837;SDS011;65797;47.352;8.164;2023-02-28T05:28:04;4.40;;;3.90;;
76837;SDS011;65797;47.352;8.164;2023-02-28T05:30:30;5.03;;;4.20;;
76837;SDS011;65797;47.352;8.164;2023-02-28T05:32:56;6.30;;;4.17;;
76837;SDS011;65797;47.352;8.164;2023-02-28T05:35:23;6.30;;;3.97;;
76837;SDS011;65797;47.352;8.164;2023-02-28T05:37:49;4.90;;;3.97;;
76837;SDS011;65797;47.352;8.164;2023-02-28T05:40:15;3.30;;;3.00;;
76837;SDS011;65797;47.352;8.164;2023-02-28T05:42:42;7.93;;;4.27;;
76837;SDS011;65797;47.352;8.164;2023-02-28T05:45:08;3.63;;;3.33;;
76837;SDS011;65797;47.352;8.164;2023-02-28T05:47:34;6.13;;;4.20;;
76837;SDS011;65797;47.352;8.164;2023-02-28T05:50:00;5.67;;;3.70;;
76837;SDS011;65797;47.352;8.164;2023-02-28T05:52:27;8.00;;;3.73;;
76837;SDS011;65797;47.352;8.164;2023-02-28T05:54:54;3.97;;;3.53;;
76837;SDS011;65797;47.352;8.164;2023-02-28T05:57:20;5.70;;;3.70;;
76837;SDS011;65797;47.352;8.164;2023-02-28T05:59:47;4.00;;;3.70;;
76837;SDS011;65797;47.352;8.164;2023-02-28T06:02:13;4.57;;;4.17;;
76837;SDS011;65797;47.352;8.164;2023-02-28T06:04:40;6.87;;;3.50;;
76837;SDS011;65797;47.352;8.164;2023-02-28T06:07:07;3.60;;;3.27;;
76837;SDS011;65797;47.352;8.164;2023-02-28T06:09:33;6.60;;;4.17;;
76837;SDS011;65797;47.352;8.164;2023-02-28T06:11:59;4.77;;;3.57;;
76837;SDS011;65797;47.352;8.164;2023-02-28T06:14:28;6.23;;;3.50;;
76837;SDS011;65797;47.352;8.164;2023-02-28T06:16:56;6.37;;;3.90;;
76837;SDS011;65797;47.352;8.164;2023-02-28T06:19:21;8.07;;;3.70;;
76837;SDS011;65797;47.352;8.164;2023-02-28T06:21:50;4.97;;;4.23;;
76837;SDS011;65797;47.352;8.164;2023-02-28T06:24:18;6.70;;;4.50;;
76837;SDS011;65797;47.352;8.164;2023-02-28T06:26:44;5.70;;;4.17;;
76837;SDS011;65797;47.352;8.164;2023-02-28T06:49:53;5.60;;;4.03;;
76837;SDS011;65797;47.352;8.164;2023-02-28T06:52:19;8.20;;;4.20;;
76837;SDS011;65797;47.352;8.164;2023-02-28T06:54:45;5.07;;;4.03;;
76837;SDS011;65797;47.352;8.164;2023-02-28T06:57:10;4.87;;;4.07;;
76837;SDS011;65797;47.352;8.164;2023-02-28T06:59:36;7.03;;;4.50;;
76837;SDS011;65797;47.352;8.164;2023-02-28T07:02:02;11.57;;;4.60;;
76837;SDS011;65797;47.352;8.164;2023-02-28T07:04:28;7.23;;;5.17;;
76837;SDS011;65797;47.352;8.164;2023-02-28T07:06:54;5.60;;;4.40;;
76837;SDS011;65797;47.352;8.164;2023-02-28T07:09:21;5.03;;;4.27;;
76837;SDS011;65797;47.352;8.164;2023-02-28T07:11:48;5.53;;;3.73;;
76837;SDS011;65797;47.352;8.164;2023-02-28T07:14:13;5.30;;;4.00;;
76837;SDS011;65797;47.352;8.164;2023-02-28T07:16:39;5.53;;;4.17;;
76837;SDS011;65797;47.352;8.164;2023-02-28T07:19:05;7.80;;;4.87;;
76837;SDS011;65797;47.352;8.164;2023-02-28T07:21:31;4.90;;;3.93;;
76837;SDS011;65797;47.352;8.164;2023-02-28T07:23:56;6.00;;;4.57;;
76837;SDS011;65797;47.352;8.164;2023-02-28T07:26:22;9.37;;;4.60;;
76837;SDS011;65797;47.352;8.164;2023-02-28T07:28:48;4.17;;;3.77;;
76837;SDS011;65797;47.352;8.164;2023-02-28T07:31:15;5.33;;;4.20;;
76837;SDS011;65797;47.352;8.164;2023-02-28T07:33:42;7.00;;;5.20;;
76837;SDS011;65797;47.352;8.164;2023-02-28T07:36:09;6.57;;;4.60;;
76837;SDS011;65797;47.352;8.164;2023-02-28T07:38:41;6.83;;;4.40;;
76837;SDS011;65797;47.352;8.164;2023-02-28T07:41:08;6.27;;;4.80;;
76837;SDS011;65797;47.352;8.164;2023-02-28T07:43:35;5.43;;;4.17;;
76837;SDS011;65797;47.352;8.164;2023-02-28T07:46:05;4.73;;;4.07;;
76837;SDS011;65797;47.352;8.164;2023-02-28T07:48:33;5.17;;;4.67;;
76837;SDS011;65797;47.352;8.164;2023-02-28T07:51:01;4.10;;;3.70;;
76837;SDS011;65797;47.352;8.164;2023-02-28T07:53:28;5.87;;;3.97;;
76837;SDS011;65797;47.352;8.164;2023-02-28T07:55:54;4.10;;;3.80;;
76837;SDS011;65797;47.352;8.164;2023-02-28T07:58:23;7.00;;;4.57;;
76837;SDS011;65797;47.352;8.164;2023-02-28T08:00:51;5.47;;;4.43;;
76837;SDS011;65797;47.352;8.164;2023-02-28T08:03:20;6.57;;;4.87;;
76837;SDS011;65797;47.352;8.164;2023-02-28T08:05:47;5.70;;;4.70;;
76837;SDS011;65797;47.352;8.164;2023-02-28T08:08:14;9.30;;;4.67;;
76837;SDS011;65797;47.352;8.164;2023-02-28T08:10:40;5.97;;;5.17;;
76837;SDS011;65797;47.352;8.164;2023-02-28T08:13:06;8.80;;;5.63;;
76837;SDS011;65797;47.352;8.164;2023-02-28T08:15:32;7.20;;;5.07;;
76837;SDS011;65797;47.352;8.164;2023-02-28T08:17:58;5.80;;;3.67;;
76837;SDS011;65797;47.352;8.164;2023-02-28T08:20:24;6.73;;;4.60;;
76837;SDS011;65797;47.352;8.164;2023-02-28T08:22:50;9.47;;;5.23;;
76837;SDS011;65797;47.352;8.164;2023-02-28T08:25:16;7.77;;;4.80;;
76837;SDS011;65797;47.352;8.164;2023-02-28T08:27:43;7.47;;;4.63;;
76837;SDS011;65797;47.352;8.164;2023-02-28T08:30:12;8.43;;;4.93;;
76837;SDS011;65797;47.352;8.164;2023-02-28T08:32:39;11.80;;;5.20;;
76837;SDS011;65797;47.352;8.164;2023-02-28T08:35:05;6.60;;;5.07;;
76837;SDS011;65797;47.352;8.164;2023-02-28T08:37:31;6.33;;;5.03;;
76837;SDS011;65797;47.352;8.164;2023-02-28T08:39:57;6.67;;;4.53;;
76837;SDS011;65797;47.352;8.164;2023-02-28T08:42:23;9.43;;;5.80;;
76837;SDS011;65797;47.352;8.164;2023-02-28T08:44:49;9.53;;;5.23;;
76837;SDS011;65797;47.352;8.164;2023-02-28T08:47:14;7.80;;;4.83;;
76837;SDS011;65797;47.352;8.164;2023-02-28T08:49:40;8.20;;;4.30;;
76837;SDS011;65797;47.352;8.164;2023-02-28T08:52:07;7.10;;;4.50;;
76837;SDS011;65797;47.352;8.164;2023-02-28T08:54:33;8.47;;;5.47;;
76837;SDS011;65797;47.352;8.164;2023-02-28T08:56:59;8.47;;;5.60;;
76837;SDS011;65797;47.352;8.164;2023-02-28T08:59:25;6.90;;;4.97;;
76837;SDS011;65797;47.352;8.164;2023-02-28T09:01:51;6.20;;;4.17;;
76837;SDS011;65797;47.352;8.164;2023-02-28T09:04:17;7.07;;;4.33;;
76837;SDS011;65797;47.352;8.164;2023-02-28T09:06:43;7.20;;;5.20;;
76837;SDS011;65797;47.352;8.164;2023-02-28T09:09:09;5.97;;;4.60;;
76837;SDS011;65797;47.352;8.164;2023-02-28T09:11:35;7.60;;;5.43;;
76837;SDS011;65797;47.352;8.164;2023-02-28T09:14:02;9.27;;;5.20;;
76837;SDS011;65797;47.352;8.164;2023-02-28T09:16:29;7.33;;;5.70;;
76837;SDS011;65797;47.352;8.164;2023-02-28T09:18:56;8.77;;;5.80;;
76837;SDS011;65797;47.352;8.164;2023-02-28T09:21:22;7.27;;;4.63;;
76837;SDS011;65797;47.352;8.164;2023-02-28T09:23:48;7.53;;;5.00;;
76837;SDS011;65797;47.352;8.164;2023-02-28T09:26:16;5.93;;;4.53;;
76837;SDS011;65797;47.352;8.164;2023-02-28T09:28:47;8.40;;;5.40;;
76837;SDS011;65797;47.352;8.164;2023-02-28T09:31:14;5.03;;;3.83;;
76837;SDS011;65797;47.352;8.164;2023-02-28T09:33:41;6.37;;;4.87;;
76837;SDS011;65797;47.352;8.164;2023-02-28T09:36:08;7.10;;;4.80;;
76837;SDS011;65797;47.352;8.164;2023-02-28T09:38:33;9.40;;;5.53;;
76837;SDS011;65797;47.352;8.164;2023-02-28T09:41:01;5.77;;;4.97;;
76837;SDS011;65797;47.352;8.164;2023-02-28T09:43:32;11.63;;;5.90;;
76837;SDS011;65797;47.352;8.164;2023-02-28T09:48:45;6.33;;;5.23;;
76837;SDS011;65797;47.352;8.164;2023-02-28T09:53:50;7.30;;;4.80;;
76837;SDS011;65797;47.352;8.164;2023-02-28T09:56:21;6.03;;;5.10;;
76837;SDS011;65797;47.352;8.164;2023-02-28T10:04:56;6.30;;;4.97;;
76837;SDS011;65797;47.352;8.164;2023-02-28T10:12:59;4.93;;;4.27;;
76837;SDS011;65797;47.352;8.164;2023-02-28T10:15:29;7.23;;;5.30;;
76837;SDS011;65797;47.352;8.164;2023-02-28T10:17:57;6.60;;;5.10;;
76837;SDS011;65797;47.352;8.164;2023-02-28T10:20:35;6.93;;;5.27;;
76837;SDS011;65797;47.352;8.164;2023-02-28T10:25:39;12.23;;;5.67;;
76837;SDS011;65797;47.352;8.164;2023-02-28T10:30:40;6.77;;;5.20;;
76837;SDS011;65797;47.352;8.164;2023-02-28T10:35:48;5.77;;;4.07;;
76837;SDS011;65797;47.352;8.164;2023-02-28T10:38:16;6.90;;;5.10;;
76837;SDS011;65797;47.352;8.164;2023-02-28T10:40:51;7.93;;;5.70;;
76837;SDS011;65797;47.352;8.164;2023-02-28T10:45:52;5.83;;;4.93;;
76837;SDS011;65797;47.352;8.164;2023-02-28T10:58:29;7.63;;;4.80;;
76837;SDS011;65797;47.352;8.164;2023-02-28T11:00:59;9.20;;;5.70;;
76837;SDS011;65797;47.352;8.164;2023-02-28T11:05:58;7.17;;;5.80;;
76837;SDS011;65797;47.352;8.164;2023-02-28T11:08:30;6.53;;;5.43;;
76837;SDS011;65797;47.352;8.164;2023-02-28T11:10:56;9.10;;;5.77;;
76837;SDS011;65797;47.352;8.164;2023-02-28T11:13:26;7.50;;;5.37;;
76837;SDS011;65797;47.352;8.164;2023-02-28T11:15:55;9.17;;;5.67;;
76837;SDS011;65797;47.352;8.164;2023-02-28T11:18:38;7.90;;;5.50;;
76837;SDS011;65797;47.352;8.164;2023-02-28T11:21:05;7.20;;;5.57;;
76837;SDS011;65797;47.352;8.164;2023-02-28T11:23:32;6.20;;;4.90;;
76837;SDS011;65797;47.352;8.164;2023-02-28T11:26:02;10.50;;;6.07;;
76837;SDS011;65797;47.352;8.164;2023-02-28T11:28:34;7.50;;;5.33;;
76837;SDS011;65797;47.352;8.164;2023-02-28T11:33:29;8.27;;;5.67;;
76837;SDS011;65797;47.352;8.164;2023-02-28T11:36:00;7.70;;;5.90;;
76837;SDS011;65797;47.352;8.164;2023-02-28T11:38:34;8.27;;;5.73;;
76837;SDS011;65797;47.352;8.164;2023-02-28T11:41:04;5.97;;;5.37;;
76837;SDS011;65797;47.352;8.164;2023-02-28T11:46:40;9.77;;;6.17;;
76837;SDS011;65797;47.352;8.164;2023-02-28T11:57:52;10.47;;;6.00;;
76837;SDS011;65797;47.352;8.164;2023-02-28T12:05:45;7.87;;;5.73;;
76837;SDS011;65797;47.352;8.164;2023-02-28T12:08:26;8.47;;;5.90;;
76837;SDS011;65797;47.352;8.164;2023-02-28T12:21:30;8.43;;;5.80;;
76837;SDS011;65797;47.352;8.164;2023-02-28T12:27:13;7.80;;;5.37;;
76837;SDS011;65797;47.352;8.164;2023-02-28T12:32:20;8.83;;;6.53;;
76837;SDS011;65797;47.352;8.164;2023-02-28T12:34:47;8.13;;;5.77;;
76837;SDS011;65797;47.352;8.164;2023-02-28T12:37:19;6.93;;;5.43;;
76837;SDS011;65797;47.352;8.164;2023-02-28T12:39:55;8.60;;;5.50;;
76837;SDS011;65797;47.352;8.164;2023-02-28T12:42:34;7.00;;;5.50;;
76837;SDS011;65797;47.352;8.164;2023-02-28T12:45:12;8.13;;;4.83;;
76837;SDS011;65797;47.352;8.164;2023-02-28T12:47:44;9.23;;;5.83;;
76837;SDS011;65797;47.352;8.164;2023-02-28T12:50:14;9.20;;;5.93;;
76837;SDS011;65797;47.352;8.164;2023-02-28T12:52:49;13.23;;;6.53;;
76837;SDS011;65797;47.352;8.164;2023-02-28T12:55:41;7.37;;;5.30;;
76837;SDS011;65797;47.352;8.164;2023-02-28T13:01:51;7.73;;;5.23;;
76837;SDS011;65797;47.352;8.164;2023-02-28T13:04:31;8.10;;;5.60;;
76837;SDS011;65797;47.352;8.164;2023-02-28T13:09:51;14.80;;;5.73;;
76837;SDS011;65797;47.352;8.164;2023-02-28T13:12:18;6.27;;;4.70;;
76837;SDS011;65797;47.352;8.164;2023-02-28T13:14:47;9.30;;;5.63;;
76837;SDS011;65797;47.352;8.164;2023-02-28T13:17:38;9.23;;;6.50;;
76837;SDS011;65797;47.352;8.164;2023-02-28T13:20:14;7.90;;;5.40;;
76837;SDS011;65797;47.352;8.164;2023-02-28T13:23:00;10.20;;;5.57;;
76837;SDS011;65797;47.352;8.164;2023-02-28T13:27:59;11.03;;;6.23;;
76837;SDS011;65797;47.352;8.164;2023-02-28T13:36:10;7.40;;;5.50;;
76837;SDS011;65797;47.352;8.164;2023-02-28T13:38:56;8.00;;;5.30;;
76837;SDS011;65797;47.352;8.164;2023-02-28T13:46:31;19.00;;;6.60;;
76837;SDS011;65797;47.352;8.164;2023-02-28T13:51:45;10.53;;;6.67;;
76837;SDS011;65797;47.352;8.164;2023-02-28T14:03:36;8.73;;;5.57;;
76837;SDS011;65797;47.352;8.164;2023-02-28T14:11:39;10.60;;;7.07;;
76837;SDS011;65797;47.352;8.164;2023-02-28T14:14:07;10.17;;;6.90;;
76837;SDS011;65797;47.352;8.164;2023-02-28T14:16:36;10.40;;;6.13;;
76837;SDS011;65797;47.352;8.164;2023-02-28T14:19:10;8.37;;;6.27;;
76837;SDS011;65797;47.352;8.164;2023-02-28T14:21:37;10.27;;;6.50;;
76837;SDS011;65797;47.352;8.164;2023-02-28T14:27:15;8.00;;;6.63;;
76837;SDS011;65797;47.352;8.164;2023-02-28T14:41:41;7.93;;;5.57;;
76837;SDS011;65797;47.352;8.164;2023-02-28T14:44:24;11.33;;;6.63;;
76837;SDS011;65797;47.352;8.164;2023-02-28T14:46:54;11.13;;;7.17;;
76837;SDS011;65797;47.352;8.164;2023-02-28T14:49:45;9.93;;;6.40;;
76837;SDS011;65797;47.352;8.164;2023-02-28T14:52:13;12.17;;;7.60;;
76837;SDS011;65797;47.352;8.164;2023-02-28T14:54:42;8.13;;;6.60;;
76837;SDS011;65797;47.352;8.164;2023-02-28T14:57:52;7.70;;;5.90;;
76837;SDS011;65797;47.352;8.164;2023-02-28T15:00:22;10.97;;;6.27;;
76837;SDS011;65797;47.352;8.164;2023-02-28T15:02:54;9.63;;;6.60;;
76837;SDS011;65797;47.352;8.164;2023-02-28T15:05:32;11.40;;;7.77;;
76837;SDS011;65797;47.352;8.164;2023-02-28T15:10:39;9.83;;;6.67;;
76837;SDS011;65797;47.352;8.164;2023-02-28T15:13:11;9.00;;;6.07;;
76837;SDS011;65797;47.352;8.164;2023-02-28T15:18:16;14.57;;;7.50;;
76837;SDS011;65797;47.352;8.164;2023-02-28T15:21:04;13.43;;;7.40;;
76837;SDS011;65797;47.352;8.164;2023-02-28T15:23:32;11.10;;;6.50;;
76837;SDS011;65797;47.352;8.164;2023-02-28T15:26:01;10.33;;;6.90;;
76837;SDS011;65797;47.352;8.164;2023-02-28T15:28:27;12.20;;;7.87;;
76837;SDS011;65797;47.352;8.164;2023-02-28T15:33:23;12.60;;;7.73;;
76837;SDS011;65797;47.352;8.164;2023-02-28T15:35:51;15.23;;;7.20;;
76837;SDS011;65797;47.352;8.164;2023-02-28T15:40:55;10.23;;;7.17;;
76837;SDS011;65797;47.352;8.164;2023-02-28T15:46:02;8.40;;;6.20;;
76837;SDS011;65797;47.352;8.164;2023-02-28T15:48:43;10.73;;;7.60;;
76837;SDS011;65797;47.352;8.164;2023-02-28T15:51:16;11.27;;;6.83;;
76837;SDS011;65797;47.352;8.164;2023-02-28T15:56:28;21.03;;;8.53;;
76837;SDS011;65797;47.352;8.164;2023-02-28T15:58:57;10.30;;;7.50;;
76837;SDS011;65797;47.352;8.164;2023-02-28T16:01:26;11.90;;;7.60;;
76837;SDS011;65797;47.352;8.164;2023-02-28T16:04:01;14.73;;;8.30;;
76837;SDS011;65797;47.352;8.164;2023-02-28T16:09:03;14.53;;;8.57;;
76837;SDS011;65797;47.352;8.164;2023-02-28T16:11:33;11.70;;;7.83;;
76837;SDS011;65797;47.352;8.164;2023-02-28T16:14:00;12.80;;;7.73;;
76837;SDS011;65797;47.352;8.164;2023-02-28T16:16:28;13.77;;;8.93;;
76837;SDS011;65797;47.352;8.164;2023-02-28T16:18:53;10.50;;;7.73;;
76837;SDS011;65797;47.352;8.164;2023-02-28T16:21:20;13.00;;;7.90;;
76837;SDS011;65797;47.352;8.164;2023-02-28T16:23:45;19.70;;;11.60;;
76837;SDS011;65797;47.352;8.164;2023-02-28T16:26:18;14.50;;;9.30;;
76837;SDS011;65797;47.352;8.164;2023-02-28T16:28:48;15.07;;;9.20;;
76837;SDS011;65797;47.352;8.164;2023-02-28T16:31:16;14.40;;;8.40;;
76837;SDS011;65797;47.352;8.164;2023-02-28T16:33:43;12.17;;;8.80;;
76837;SDS011;65797;47.352;8.164;2023-02-28T16:36:19;12.57;;;8.27;;
76837;SDS011;65797;47.352;8.164;2023-02-28T16:38:49;13.40;;;8.53;;
76837;SDS011;65797;47.352;8.164;2023-02-28T16:41:19;14.00;;;8.97;;
76837;SDS011;65797;47.352;8.164;2023-02-28T16:43:49;15.43;;;8.80;;
76837;SDS011;65797;47.352;8.164;2023-02-28T16:46:17;14.00;;;9.10;;
76837;SDS011;65797;47.352;8.164;2023-02-28T16:48:44;14.43;;;9.20;;
76837;SDS011;65797;47.352;8.164;2023-02-28T16:51:14;16.53;;;7.90;;
76837;SDS011;65797;47.352;8.164;2023-02-28T16:53:41;13.90;;;8.30;;
76837;SDS011;65797;47.352;8.164;2023-02-28T16:56:14;10.70;;;7.23;;
76837;SDS011;65797;47.352;8.164;2023-02-28T16:58:48;12.57;;;8.07;;
76837;SDS011;65797;47.352;8.164;2023-02-28T17:01:15;12.33;;;8.10;;
76837;SDS011;65797;47.352;8.164;2023-02-28T17:03:41;20.57;;;8.33;;
76837;SDS011;65797;47.352;8.164;2023-02-28T17:06:24;11.63;;;8.10;;
76837;SDS011;65797;47.352;8.164;2023-02-28T17:08:53;12.50;;;8.60;;
76837;SDS011;65797;47.352;8.164;2023-02-28T17:11:20;16.97;;;9.70;;
76837;SDS011;65797;47.352;8.164;2023-02-28T17:13:46;16.13;;;8.87;;
76837;SDS011;65797;47.352;8.164;2023-02-28T17:16:15;12.73;;;8.67;;
76837;SDS011;65797;47.352;8.164;2023-02-28T17:18:50;12.53;;;7.70;;
76837;SDS011;65797;47.352;8.164;2023-02-28T17:21:16;12.40;;;7.97;;
76837;SDS011;65797;47.352;8.164;2023-02-28T17:23:42;14.97;;;8.90;;
76837;SDS011;65797;47.352;8.164;2023-02-28T17:26:11;18.47;;;8.87;;
76837;SDS011;65797;47.352;8.164;2023-02-28T17:28:42;13.57;;;8.63;;
76837;SDS011;65797;47.352;8.164;2023-02-28T17:31:08;14.30;;;9.00;;
76837;SDS011;65797;47.352;8.164;2023-02-28T17:33:34;16.27;;;8.73;;
76837;SDS011;65797;47.352;8.164;2023-02-28T17:36:00;16.23;;;9.60;;
76837;SDS011;65797;47.352;8.164;2023-02-28T17:38:26;12.13;;;8.23;;
76837;SDS011;65797;47.352;8.164;2023-02-28T17:40:52;14.07;;;8.40;;
76837;SDS011;65797;47.352;8.164;2023-02-28T17:43:22;11.67;;;8.37;;
76837;SDS011;65797;47.352;8.164;2023-02-28T17:45:51;13.67;;;8.83;;
76837;SDS011;65797;47.352;8.164;2023-02-28T17:48:17;12.63;;;8.40;;
76837;SDS011;65797;47.352;8.164;2023-02-28T17:50:43;13.93;;;8.73;;
76837;SDS011;65797;47.352;8.164;2023-02-28T17:53:09;19.17;;;9.77;;
76837;SDS011;65797;47.352;8.164;2023-02-28T17:55:35;15.07;;;9.50;;
76837;SDS011;65797;47.352;8.164;2023-02-28T17:58:01;16.53;;;9.30;;
76837;SDS011;65797;47.352;8.164;2023-02-28T18:00:28;14.30;;;8.80;;
76837;SDS011;65797;47.352;8.164;2023-02-28T18:02:54;14.20;;;7.70;;
76837;SDS011;65797;47.352;8.164;2023-02-28T18:05:22;16.13;;;9.30;;
76837;SDS011;65797;47.352;8.164;2023-02-28T18:07:48;17.20;;;10.30;;
76837;SDS011;65797;47.352;8.164;2023-02-28T18:10:15;19.13;;;10.57;;
76837;SDS011;65797;47.352;8.164;2023-02-28T18:12:46;13.53;;;8.57;;
76837;SDS011;65797;47.352;8.164;2023-02-28T18:15:13;17.07;;;10.37;;
76837;SDS011;65797;47.352;8.164;2023-02-28T18:17:39;19.07;;;10.03;;
76837;SDS011;65797;47.352;8.164;2023-02-28T18:20:06;16.10;;;9.70;;
76837;SDS011;65797;47.352;8.164;2023-02-28T18:22:34;13.63;;;8.43;;
76837;SDS011;65797;47.352;8.164;2023-02-28T18:25:03;15.40;;;8.53;;